Time;durP1;ratioP1;P1;durP2;ratioP2;P2;SDS_P1;SDS_P2;PMS_P1;PMS_P2;Temp;Humidity;BMP_temperature;BMP_pressure;BME280_temperature;BME280_humidity;BME280_pressure;Samples;Min_cycle;Max_cycle;Signal;HPM_P1;HPM_P2
2021/05/22 00:01:15;;;;;;;8.52;3.00;;;10.30;99.90;;;;;;4974864;28;20511;-90
2021/05/22 00:03:42;;;;;;;5.43;2.08;;;10.40;99.90;;;;;;4963140;28;20475;-88
2021/05/22 00:06:08;;;;;;;6.55;1.70;;;11.20;99.90;;;;;;4975713;28;20518;-88
2021/05/22 00:08:35;;;;;;;7.30;1.70;;;10.50;99.90;;;;;;4973022;28;20523;-87
2021/05/22 00:11:01;;;;;;;6.78;2.40;;;9.90;99.90;;;;;;4975560;28;20432;-86
2021/05/22 00:13:27;;;;;;;6.68;2.33;;;11.10;99.90;;;;;;4963499;28;20438;-90
2021/05/22 00:15:55;;;;;;;5.72;2.20;;;10.40;99.90;;;;;;4974543;28;20418;-89
2021/05/22 00:18:21;;;;;;;3.97;1.60;;;10.30;99.90;;;;;;4966098;28;20555;-88
2021/05/22 00:20:47;;;;;;;4.70;2.03;;;10.30;99.90;;;;;;4972289;28;20486;-88
2021/05/22 00:23:15;;;;;;;6.00;2.60;;;10.30;99.90;;;;;;4976323;28;20737;-87
2021/05/22 00:25:42;;;;;;;5.40;1.60;;;10.90;99.90;;;;;;4967683;28;20856;-89
2021/05/22 00:28:09;;;;;;;4.95;2.13;;;10.30;99.90;;;;;;4956018;28;20524;-88
2021/05/22 00:30:35;;;;;;;4.85;2.50;;;10.10;99.90;;;;;;4963973;28;20831;-88
2021/05/22 00:33:02;;;;;;;3.63;1.90;;;10.20;99.90;;;;;;4975461;28;20420;-87
2021/05/22 00:35:29;;;;;;;5.45;1.63;;;10.40;99.90;;;;;;4974039;28;20515;-88
2021/05/22 00:37:55;;;;;;;3.72;1.85;;;10.30;99.90;;;;;;4975159;28;20495;-87
2021/05/22 00:40:21;;;;;;;8.10;2.17;;;10.00;99.90;;;;;;4975321;28;20436;-88
2021/05/22 00:42:48;;;;;;;6.10;1.60;;;10.00;99.90;;;;;;4974839;28;20793;-88
2021/05/22 00:45:17;;;;;;;4.05;1.73;;;10.50;99.90;;;;;;4963142;28;20424;-88
2021/05/22 00:47:46;;;;;;;5.28;1.60;;;10.30;99.90;;;;;;4973026;28;20461;-87
2021/05/22 00:50:18;;;;;;;3.70;1.80;;;9.70;99.90;;;;;;4965280;28;20480;-89
2021/05/22 00:52:44;;;;;;;4.05;1.80;;;10.00;99.90;;;;;;4960481;28;20479;-88
2021/05/22 00:55:11;;;;;;;5.93;2.03;;;9.50;99.90;;;;;;4971125;28;20438;-87
2021/05/22 00:57:39;;;;;;;4.47;2.10;;;10.20;99.90;;;;;;4954523;28;20910;-88
2021/05/22 01:00:08;;;;;;;4.72;1.80;;;9.80;99.90;;;;;;4972717;28;20463;-88
2021/05/22 01:02:35;;;;;;;4.97;2.00;;;10.00;99.90;;;;;;4962915;28;20528;-87
2021/05/22 01:05:01;;;;;;;4.85;1.88;;;9.70;99.90;;;;;;4958712;28;20533;-87
2021/05/22 01:07:28;;;;;;;5.20;1.73;;;10.20;99.90;;;;;;4971291;28;20451;-88
2021/05/22 01:09:56;;;;;;;4.95;2.00;;;9.60;99.90;;;;;;4991242;28;20524;-89
2021/05/22 01:12:31;;;;;;;4.50;2.05;;;9.50;99.90;;;;;;4978483;28;20453;-88
2021/05/22 01:15:04;;;;;;;5.00;1.73;;;9.80;99.90;;;;;;4985667;28;20433;-88
2021/05/22 01:17:33;;;;;;;4.47;1.70;;;9.60;99.90;;;;;;4973985;28;20465;-87
2021/05/22 01:20:06;;;;;;;4.68;2.10;;;9.20;99.90;;;;;;4974694;28;20436;-87
2021/05/22 01:22:40;;;;;;;6.72;1.90;;;9.50;99.90;;;;;;4974710;28;20440;-88
2021/05/22 01:25:08;;;;;;;5.50;1.70;;;9.50;99.90;;;;;;4960987;28;20728;-88
2021/05/22 01:27:37;;;;;;;4.38;1.85;;;9.70;99.90;;;;;;4964563;28;20436;-88
2021/05/22 01:30:06;;;;;;;3.50;1.40;;;9.50;99.90;;;;;;4958130;29;20442;-86
2021/05/22 01:32:33;;;;;;;4.35;1.90;;;9.50;99.90;;;;;;4972927;28;20438;-87
2021/05/22 01:35:00;;;;;;;3.55;1.65;;;9.40;99.90;;;;;;4980078;28;20432;-87
2021/05/22 01:37:26;;;;;;;4.22;2.10;;;9.50;99.90;;;;;;4959389;28;20838;-88
2021/05/22 01:39:53;;;;;;;5.20;1.60;;;10.20;99.90;;;;;;4958092;29;20445;-88
2021/05/22 01:42:19;;;;;;;6.72;2.40;;;9.20;99.90;;;;;;4972868;28;20432;-87
2021/05/22 01:44:50;;;;;;;4.83;1.77;;;9.20;99.90;;;;;;4977759;28;20428;-87
2021/05/22 01:47:18;;;;;;;7.72;1.70;;;9.80;99.90;;;;;;4970908;28;20805;-88
2021/05/22 01:49:45;;;;;;;6.03;2.40;;;9.10;99.90;;;;;;4977924;28;20912;-88
2021/05/22 01:52:12;;;;;;;4.40;1.80;;;9.10;99.90;;;;;;4968181;28;20424;-88
2021/05/22 01:54:41;;;;;;;6.40;1.73;;;9.30;99.90;;;;;;4982610;28;20438;-87
2021/05/22 01:57:08;;;;;;;4.90;1.90;;;9.50;99.90;;;;;;4990439;28;20472;-87
2021/05/22 01:59:38;;;;;;;4.30;1.90;;;9.20;99.90;;;;;;4988563;28;20904;-88
2021/05/22 02:02:05;;;;;;;6.18;1.90;;;9.30;99.90;;;;;;4977905;28;20436;-89
2021/05/22 02:04:35;;;;;;;5.85;1.80;;;9.50;99.90;;;;;;4979232;28;20527;-87
2021/05/22 02:07:02;;;;;;;4.78;1.85;;;9.80;99.90;;;;;;4969694;28;20460;-86
2021/05/22 02:09:30;;;;;;;6.75;1.90;;;9.40;99.90;;;;;;4976306;28;20414;-88
2021/05/22 02:11:56;;;;;;;4.88;1.60;;;9.50;99.90;;;;;;4981690;28;20471;-87
2021/05/22 02:14:28;;;;;;;5.65;2.22;;;9.50;99.90;;;;;;4979941;28;20540;-87
2021/05/22 02:16:56;;;;;;;4.32;2.10;;;9.50;99.90;;;;;;4969180;28;20430;-88
2021/05/22 02:19:26;;;;;;;3.42;1.60;;;9.40;99.90;;;;;;4958562;28;20786;-88
2021/05/22 02:21:55;;;;;;;3.60;1.80;;;9.40;99.90;;;;;;4977024;28;20432;-88
2021/05/22 02:24:24;;;;;;;6.97;2.25;;;9.60;99.90;;;;;;4968434;28;20438;-87
2021/05/22 02:26:52;;;;;;;4.63;1.60;;;9.60;99.90;;;;;;4977202;28;20435;-88
2021/05/22 02:29:19;;;;;;;;;;;9.80;99.90;;;;;;4969907;28;20434;-90
2021/05/22 02:31:48;;;;;;;6.07;2.38;;;9.60;99.90;;;;;;4961043;28;20949;-88
2021/05/22 02:34:17;;;;;;;4.28;2.08;;;9.90;99.90;;;;;;4961263;28;20434;-89
2021/05/22 02:36:45;;;;;;;5.40;2.00;;;9.70;99.90;;;;;;4958935;28;20798;-89
2021/05/22 02:39:12;;;;;;;8.13;2.08;;;9.90;99.90;;;;;;4969082;28;20428;-89
2021/05/22 02:41:41;;;;;;;5.90;1.60;;;9.80;99.90;;;;;;4979338;28;20457;-90
2021/05/22 02:44:09;;;;;;;6.60;1.77;;;9.60;99.90;;;;;;4975422;28;20458;-87
2021/05/22 02:46:39;;;;;;;6.65;2.35;;;9.70;99.90;;;;;;4979834;28;20416;-89
2021/05/22 02:49:07;;;;;;;5.82;1.60;;;10.10;99.90;;;;;;4987983;28;20463;-90
2021/05/22 02:51:34;;;;;;;4.28;2.20;;;9.40;99.90;;;;;;4985213;28;20494;-88
2021/05/22 02:54:03;;;;;;;3.70;1.50;;;9.90;99.90;;;;;;4976229;28;20488;-89
2021/05/22 02:56:31;;;;;;;4.75;1.60;;;10.10;99.90;;;;;;4972958;28;20429;-88
2021/05/22 02:58:58;;;;;;;6.40;1.95;;;9.80;99.90;;;;;;4956122;28;20434;-88
2021/05/22 03:01:25;;;;;;;6.15;1.75;;;10.00;99.90;;;;;;4960975;28;20432;-89
2021/05/22 03:03:54;;;;;;;6.85;2.38;;;9.90;99.90;;;;;;4971684;28;20442;-89
2021/05/22 03:06:20;;;;;;;4.03;1.50;;;9.70;99.90;;;;;;4958856;28;20459;-88
2021/05/22 03:08:48;;;;;;;5.78;1.98;;;10.10;99.90;;;;;;4973158;28;20424;-89
2021/05/22 03:11:17;;;;;;;5.85;1.67;;;10.30;99.90;;;;;;4958925;28;20414;-91
2021/05/22 03:13:44;;;;;;;6.05;1.73;;;9.90;99.90;;;;;;4974997;28;20449;-89
2021/05/22 03:16:10;;;;;;;5.80;1.90;;;9.90;99.90;;;;;;4961342;28;20429;-87
2021/05/22 03:18:37;;;;;;;3.22;1.63;;;10.10;99.90;;;;;;4975228;28;20439;-89
2021/05/22 03:21:03;;;;;;;4.82;1.50;;;10.10;99.90;;;;;;4972820;28;20520;-89
2021/05/22 03:23:30;;;;;;;3.38;1.23;;;10.50;99.90;;;;;;4974858;28;20442;-89
2021/05/22 03:25:56;;;;;;;3.92;1.55;;;11.50;99.90;;;;;;4972005;28;20428;-88
2021/05/22 03:28:23;;;;;;;4.18;1.60;;;10.20;99.90;;;;;;4975940;28;20424;-90
2021/05/22 03:30:50;;;;;;;4.60;1.60;;;10.10;99.90;;;;;;4962460;28;20445;-87
2021/05/22 03:33:17;;;;;;;5.10;1.85;;;10.10;99.90;;;;;;4958871;29;20902;-90
2021/05/22 03:35:44;;;;;;;2.77;1.40;;;10.20;99.90;;;;;;4973108;28;20429;-87
2021/05/22 03:38:10;;;;;;;6.78;2.30;;;11.00;99.90;;;;;;4976212;28;20845;-89
2021/05/22 03:40:36;;;;;;;5.20;1.70;;;10.20;99.90;;;;;;4978161;28;20466;-87
2021/05/22 03:43:03;;;;;;;7.28;1.80;;;10.40;99.90;;;;;;4964170;28;20924;-87
2021/05/22 03:45:30;;;;;;;4.20;1.43;;;9.70;99.90;;;;;;4955804;28;20430;-89
2021/05/22 03:47:57;;;;;;;5.05;1.70;;;10.10;99.90;;;;;;4957869;28;20448;-87
2021/05/22 03:50:23;;;;;;;5.57;2.30;;;9.90;99.90;;;;;;4957199;29;20469;-87
2021/05/22 03:52:50;;;;;;;6.00;1.83;;;10.00;99.90;;;;;;4968197;28;20412;-86
2021/05/22 03:55:16;;;;;;;4.05;2.05;;;9.90;99.90;;;;;;4991075;28;20452;-85
2021/05/22 03:57:43;;;;;;;6.03;1.70;;;10.20;99.90;;;;;;4975561;28;20620;-88
2021/05/22 04:00:10;;;;;;;4.18;1.67;;;9.90;99.90;;;;;;4975540;29;20522;-85
2021/05/22 04:02:37;;;;;;;5.43;1.70;;;9.90;99.90;;;;;;4964516;28;20448;-86
2021/05/22 04:05:05;;;;;;;6.18;2.22;;;10.30;99.90;;;;;;4956169;29;20425;-87
2021/05/22 04:07:31;;;;;;;7.05;1.70;;;10.30;99.90;;;;;;4957467;28;20519;-87
2021/05/22 04:09:57;;;;;;;4.90;2.00;;;10.10;99.90;;;;;;4974581;28;20434;-87
2021/05/22 04:12:24;;;;;;;6.28;3.00;;;10.40;99.90;;;;;;4972133;28;20434;-94
2021/05/22 04:14:51;;;;;;;4.00;1.80;;;10.30;99.90;;;;;;4966495;28;20517;-88
2021/05/22 04:17:17;;;;;;;6.72;1.52;;;10.40;99.90;;;;;;4970217;28;20497;-86
2021/05/22 04:19:44;;;;;;;6.30;1.55;;;10.30;99.90;;;;;;4967314;28;20453;-87
2021/05/22 04:22:11;;;;;;;4.50;1.50;;;10.10;99.90;;;;;;4959080;28;20433;-88
2021/05/22 04:24:37;;;;;;;6.50;2.35;;;10.50;99.90;;;;;;4955021;28;20538;-87
2021/05/22 04:27:04;;;;;;;4.28;2.03;;;10.10;99.90;;;;;;4955025;28;20434;-87
2021/05/22 04:29:31;;;;;;;5.78;2.40;;;10.50;99.90;;;;;;4971696;28;20428;-89
2021/05/22 04:31:57;;;;;;;4.22;1.70;;;9.90;99.90;;;;;;4974555;28;20426;-87
2021/05/22 04:34:23;;;;;;;4.70;2.25;;;10.40;99.90;;;;;;4969509;28;20436;-90
2021/05/22 04:36:51;;;;;;;5.22;1.50;;;10.60;99.90;;;;;;4973059;28;20442;-87
2021/05/22 04:39:17;;;;;;;8.45;2.20;;;10.20;99.90;;;;;;4973251;28;20434;-87
2021/05/22 04:41:43;;;;;;;9.90;2.60;;;10.40;99.90;;;;;;4966738;28;20428;-86
2021/05/22 04:44:10;;;;;;;7.00;2.92;;;10.20;99.90;;;;;;4974779;28;20858;-87
2021/05/22 04:46:37;;;;;;;5.07;1.50;;;10.30;99.90;;;;;;4969838;28;20442;-87
2021/05/22 04:49:04;;;;;;;4.70;1.80;;;9.70;99.90;;;;;;4977402;28;20478;-88
2021/05/22 04:51:30;;;;;;;4.45;2.10;;;10.70;99.90;;;;;;4970243;28;20475;-86
2021/05/22 04:54:02;;;;;;;6.68;2.22;;;10.20;99.90;;;;;;4977580;28;20420;-86
2021/05/22 04:56:28;;;;;;;5.35;2.20;;;10.40;99.90;;;;;;4974565;28;20794;-87
2021/05/22 04:58:54;;;;;;;5.03;2.15;;;10.40;99.90;;;;;;4958322;29;20455;-88
2021/05/22 05:01:21;;;;;;;5.55;2.03;;;10.60;99.90;;;;;;4959627;28;20430;-85
2021/05/22 05:03:47;;;;;;;9.30;1.90;;;10.60;99.90;;;;;;4978856;28;20436;-85
2021/05/22 05:06:13;;;;;;;5.55;2.60;;;10.00;99.90;;;;;;4979403;28;20433;-85
2021/05/22 05:08:42;;;;;;;9.83;3.20;;;10.30;99.90;;;;;;4978374;28;20439;-87
2021/05/22 05:11:10;;;;;;;7.90;1.98;;;10.40;99.90;;;;;;4990774;28;20520;-87
2021/05/22 05:13:37;;;;;;;5.85;2.40;;;10.20;99.90;;;;;;4970997;28;20538;-89
2021/05/22 05:16:03;;;;;;;4.13;1.90;;;11.40;99.90;;;;;;4972739;28;20461;-89
2021/05/22 05:18:30;;;;;;;7.15;2.40;;;10.70;99.90;;;;;;4971170;28;20436;-88
2021/05/22 05:20:56;;;;;;;6.90;1.83;;;10.40;99.90;;;;;;4975118;28;20438;-90
2021/05/22 05:23:23;;;;;;;7.00;1.90;;;10.00;99.90;;;;;;4968984;28;20441;-89
2021/05/22 05:25:51;;;;;;;5.70;1.92;;;10.90;99.90;;;;;;4967575;28;20482;-92
2021/05/22 05:28:19;;;;;;;6.10;2.53;;;10.40;99.90;;;;;;4973000;28;20428;-88
2021/05/22 05:30:45;;;;;;;4.10;1.90;;;10.30;99.90;;;;;;4966116;28;20440;-88
2021/05/22 05:33:12;;;;;;;6.13;1.90;;;10.70;99.90;;;;;;4973129;28;20441;-88
2021/05/22 05:35:38;;;;;;;5.75;2.10;;;10.30;99.90;;;;;;4961891;28;20418;-93
2021/05/22 05:38:04;;;;;;;5.50;2.05;;;10.30;99.90;;;;;;4973776;28;20432;-90
2021/05/22 05:40:31;;;;;;;5.80;2.03;;;10.40;99.90;;;;;;4970308;28;20461;-90
2021/05/22 05:42:57;;;;;;;4.25;1.88;;;10.40;99.90;;;;;;4973719;28;20447;-90
2021/05/22 05:45:25;;;;;;;7.93;2.53;;;;;;;;;;4969288;28;20422;-91
2021/05/22 05:47:53;;;;;;;5.80;2.30;;;11.00;99.90;;;;;;4978929;28;20463;-89
2021/05/22 05:50:20;;;;;;;4.50;2.00;;;10.70;99.90;;;;;;4970247;28;20494;-90
2021/05/22 05:52:46;;;;;;;5.80;2.00;;;11.20;99.90;;;;;;4957239;28;20819;-88
2021/05/22 05:55:13;;;;;;;6.00;2.10;;;12.30;99.90;;;;;;4962486;28;20459;-87
2021/05/22 05:57:39;;;;;;;5.18;2.10;;;;;;;;;;4976004;28;20439;-91
2021/05/22 06:00:07;;;;;;;6.18;2.53;;;10.80;99.90;;;;;;4969354;28;20428;-89
2021/05/22 06:02:34;;;;;;;5.38;2.00;;;11.30;99.90;;;;;;4975330;28;20847;-89
2021/05/22 06:05:00;;;;;;;4.40;2.03;;;10.70;99.90;;;;;;4971065;28;20487;-88
2021/05/22 06:07:27;;;;;;;7.82;2.40;;;10.40;99.90;;;;;;4969204;28;20912;-88
2021/05/22 06:09:53;;;;;;;6.88;2.10;;;12.50;99.90;;;;;;4975149;28;20436;-90
2021/05/22 06:12:19;;;;;;;10.10;3.05;;;11.70;99.90;;;;;;4974448;28;20447;-89
2021/05/22 06:14:50;;;;;;;4.35;2.10;;;10.90;99.90;;;;;;4975230;28;20440;-91
2021/05/22 06:17:16;;;;;;;7.20;2.33;;;10.70;99.90;;;;;;4962452;28;20425;-91
2021/05/22 06:19:44;;;;;;;5.15;1.70;;;10.80;99.90;;;;;;4958964;28;20434;-91
2021/05/22 06:22:10;;;;;;;7.82;2.10;;;11.00;99.90;;;;;;4961854;28;20511;-90
2021/05/22 06:24:37;;;;;;;6.80;2.28;;;11.30;99.90;;;;;;4981056;28;20440;-89
2021/05/22 06:27:03;;;;;;;8.10;2.05;;;10.90;99.90;;;;;;4982393;28;20455;-88
2021/05/22 06:29:30;;;;;;;8.32;2.60;;;10.80;99.90;;;;;;4977124;28;20469;-89
2021/05/22 06:31:56;;;;;;;5.97;2.35;;;11.40;99.90;;;;;;4963849;28;20486;-90
2021/05/22 06:34:23;;;;;;;6.22;2.00;;;10.70;99.90;;;;;;4964527;28;20452;-91
2021/05/22 06:36:50;;;;;;;7.20;2.65;;;10.70;99.90;;;;;;4966069;28;20453;-91
2021/05/22 06:39:17;;;;;;;6.47;2.50;;;11.00;99.90;;;;;;4967685;28;20463;-89
2021/05/22 06:41:43;;;;;;;6.60;2.80;;;;;;;;;;4994127;28;20452;-88
2021/05/22 06:44:16;;;;;;;6.60;1.80;;;10.90;99.90;;;;;;5000788;28;20452;-90
2021/05/22 06:46:48;;;;;;;4.32;1.88;;;10.90;99.90;;;;;;4970483;28;20504;-93
2021/05/22 06:49:16;;;;;;;8.98;2.80;;;10.70;99.90;;;;;;4973885;28;20564;-92
2021/05/22 06:51:42;;;;;;;4.82;1.85;;;10.40;99.90;;;;;;4970906;28;20675;-90
2021/05/22 06:54:11;;;;;;;6.22;1.90;;;10.30;99.90;;;;;;4960113;28;20484;-92
2021/05/22 06:56:38;;;;;;;6.63;2.05;;;10.30;99.90;;;;;;4971728;28;20483;-92
2021/05/22 06:59:04;;;;;;;4.95;1.80;;;10.40;99.90;;;;;;4970703;28;20428;-93
2021/05/22 07:01:32;;;;;;;5.15;2.20;;;10.40;99.90;;;;;;4977714;28;20430;-92
2021/05/22 07:03:59;;;;;;;7.25;2.50;;;10.30;99.90;;;;;;4976004;28;20511;-92
2021/05/22 07:06:26;;;;;;;4.40;1.98;;;12.00;99.90;;;;;;4965527;28;20433;-91
2021/05/22 07:08:56;;;;;;;4.43;1.70;;;10.70;99.90;;;;;;4956828;29;20493;-90
2021/05/22 07:11:26;;;;;;;7.43;2.03;;;;;;;;;;4974371;28;20933;-94
2021/05/22 07:13:52;;;;;;;6.43;2.08;;;10.40;99.90;;;;;;4968539;28;20439;-89
2021/05/22 07:16:19;;;;;;;4.95;2.10;;;11.50;99.90;;;;;;4985083;28;20530;-91
2021/05/22 07:18:45;;;;;;;7.47;1.85;;;11.00;99.90;;;;;;4991877;28;20523;-86
2021/05/22 07:21:14;;;;;;;4.95;1.95;;;10.00;99.90;;;;;;4985015;28;21063;-87
2021/05/22 07:23:40;;;;;;;6.00;1.60;;;11.20;99.90;;;;;;4974866;28;20440;-88
2021/05/22 07:26:07;;;;;;;5.75;2.10;;;10.20;99.90;;;;;;4975338;28;20436;-86
2021/05/22 07:28:34;;;;;;;4.55;1.83;;;10.50;99.90;;;;;;4966769;28;20436;-88
2021/05/22 07:31:01;;;;;;;5.43;1.73;;;10.10;99.90;;;;;;4964744;28;20921;-89
2021/05/22 07:33:28;;;;;;;4.50;2.13;;;10.60;99.90;;;;;;4958355;28;20923;-90
2021/05/22 07:35:54;;;;;;;6.55;1.90;;;10.30;99.90;;;;;;4975504;28;20515;-89
2021/05/22 07:38:21;;;;;;;5.20;1.80;;;10.20;99.90;;;;;;4972997;28;20534;-89
2021/05/22 07:40:48;;;;;;;8.70;2.30;;;10.40;99.90;;;;;;4973289;28;20800;-91
2021/05/22 07:43:19;;;;;;;11.10;1.90;;;10.50;99.90;;;;;;4978472;28;20467;-91
2021/05/22 07:45:50;;;;;;;3.83;1.70;;;;;;;;;;4961958;28;21197;-96
2021/05/22 07:48:17;;;;;;;6.45;2.30;;;;;;;;;;4966268;28;20432;-92
2021/05/22 07:50:44;;;;;;;4.53;1.50;;;;;;;;;;4974605;28;20451;-91
2021/05/22 07:53:12;;;;;;;4.35;1.70;;;;;;;;;;4977772;28;20432;-93
2021/05/22 07:55:40;;;;;;;5.40;1.58;;;;;;;;;;4977264;28;20958;-90
2021/05/22 07:58:07;;;;;;;8.90;2.10;;;10.60;99.90;;;;;;4971394;28;20857;-93
2021/05/22 08:00:34;;;;;;;7.10;1.50;;;;;;;;;;4961470;28;20501;-89
2021/05/22 08:03:02;;;;;;;5.35;1.30;;;;;;;;;;4978734;28;20523;-92
2021/05/22 08:05:28;;;;;;;10.63;1.85;;;;;;;;;;4969179;28;20971;-92
2021/05/22 08:07:55;;;;;;;3.20;1.20;;;;;;;;;;4961302;29;20453;-90
2021/05/22 08:10:22;;;;;;;4.30;1.80;;;;;;;;;;4981718;28;20487;-88
2021/05/22 08:12:48;;;;;;;5.30;1.40;;;10.70;99.90;;;;;;4985992;28;20443;-89
2021/05/22 08:15:15;;;;;;;4.80;1.50;;;10.80;99.90;;;;;;4966501;28;20433;-89
2021/05/22 08:17:41;;;;;;;5.03;2.30;;;10.50;99.90;;;;;;4970734;28;20432;-88
2021/05/22 08:20:11;;;;;;;4.33;1.90;;;10.30;99.90;;;;;;4973360;28;20436;-89
2021/05/22 08:22:38;;;;;;;5.20;1.40;;;;;;;;;;4976034;28;20428;-89
2021/05/22 08:25:05;;;;;;;5.75;1.60;;;;;;;;;;4973506;28;20428;-87
2021/05/22 08:27:31;;;;;;;5.95;1.70;;;9.90;99.90;;;;;;4979540;28;20468;-88
2021/05/22 08:29:58;;;;;;;3.10;1.47;;;10.50;99.90;;;;;;4977251;28;20475;-88
2021/05/22 08:32:26;;;;;;;4.78;1.70;;;9.90;99.90;;;;;;4960426;28;20451;-88
2021/05/22 08:34:53;;;;;;;3.28;1.58;;;10.30;99.90;;;;;;4976637;28;20431;-86
2021/05/22 08:37:21;;;;;;;5.13;2.15;;;10.40;99.90;;;;;;4975160;28;20449;-87
2021/05/22 08:39:48;;;;;;;7.82;1.70;;;;;;;;;;4975675;28;20441;-88
2021/05/22 08:42:19;;;;;;;4.45;1.33;;;9.10;99.90;;;;;;4978704;28;20444;-85
2021/05/22 08:44:45;;;;;;;5.00;1.50;;;10.80;99.90;;;;;;4979193;28;20491;-90
2021/05/22 08:47:12;;;;;;;5.38;1.88;;;10.50;99.90;;;;;;4964990;28;20446;-89
2021/05/22 08:49:42;;;;;;;4.00;1.30;;;9.90;99.90;;;;;;4978098;28;21765;-90
2021/05/22 08:52:11;;;;;;;4.43;1.57;;;9.70;99.90;;;;;;4977204;28;20798;-93
2021/05/22 08:54:39;;;;;;;4.00;1.80;;;10.30;99.90;;;;;;4978692;28;20472;-90
2021/05/22 08:57:07;;;;;;;5.97;2.00;;;10.40;99.90;;;;;;4965622;28;20436;-92
2021/05/22 08:59:38;;;;;;;4.97;1.50;;;9.60;99.90;;;;;;4978719;28;20420;-91
2021/05/22 09:02:05;;;;;;;6.10;1.90;;;10.30;99.90;;;;;;4967172;28;20519;-92
2021/05/22 09:04:32;;;;;;;7.78;2.30;;;9.80;99.90;;;;;;4983214;28;20524;-91
2021/05/22 09:07:03;;;;;;;5.72;2.00;;;10.70;99.90;;;;;;4983349;28;20432;-91
2021/05/22 09:09:41;;;;;;;5.43;2.10;;;9.80;99.90;;;;;;4981926;28;20436;-91
2021/05/22 09:12:11;;;;;;;3.22;1.80;;;9.80;99.90;;;;;;4994509;28;20461;-91
2021/05/22 09:14:43;;;;;;;6.90;1.80;;;9.80;99.90;;;;;;4995803;28;20942;-91
2021/05/22 09:17:12;;;;;;;4.68;1.98;;;9.80;99.90;;;;;;4999760;28;20428;-91
2021/05/22 09:19:38;;;;;;;6.80;2.20;;;9.70;99.90;;;;;;4994700;28;20567;-92
2021/05/22 09:22:23;;;;;;;4.43;1.60;;;10.10;99.90;;;;;;4993566;28;20967;-92
2021/05/22 09:24:58;;;;;;;7.22;2.15;;;9.70;99.90;;;;;;4971935;28;20486;-88
2021/05/22 09:27:29;;;;;;;5.20;1.83;;;10.10;99.90;;;;;;4972485;28;20452;-90
2021/05/22 09:29:55;;;;;;;3.30;1.70;;;9.40;99.90;;;;;;4972224;28;20498;-91
2021/05/22 09:32:23;;;;;;;7.55;2.20;;;;;;;;;;4974991;28;20450;-91
2021/05/22 09:34:50;;;;;;;4.00;1.85;;;10.10;99.90;;;;;;4970881;28;20789;-89
2021/05/22 09:37:18;;;;;;;8.20;2.15;;;9.80;99.90;;;;;;4975285;28;20443;-90
2021/05/22 09:39:46;;;;;;;4.90;2.70;;;9.80;99.90;;;;;;4977389;28;20440;-90
2021/05/22 09:42:22;;;;;;;5.70;2.72;;;10.00;99.90;;;;;;4978319;28;20432;-90
2021/05/22 09:44:49;;;;;;;4.60;2.40;;;9.70;99.90;;;;;;4977640;28;20958;-89
2021/05/22 09:47:16;;;;;;;5.00;1.90;;;10.10;99.90;;;;;;4974193;28;20432;-89
2021/05/22 09:49:42;;;;;;;4.95;1.70;;;10.20;99.90;;;;;;4975843;28;20741;-88
2021/05/22 09:52:11;;;;;;;6.23;2.37;;;11.10;99.90;;;;;;4969566;28;20489;-89
2021/05/22 09:54:45;;;;;;;6.22;2.28;;;10.60;99.90;;;;;;4971902;28;20471;-88
2021/05/22 09:57:16;;;;;;;5.35;2.00;;;11.30;99.90;;;;;;4971795;28;20432;-88
2021/05/22 09:59:43;;;;;;;7.20;3.70;;;11.10;99.90;;;;;;4973611;28;20908;-87
2021/05/22 10:02:10;;;;;;;6.32;2.28;;;10.90;99.90;;;;;;4971721;28;20444;-88
2021/05/22 10:04:37;;;;;;;7.82;2.67;;;11.00;99.90;;;;;;4971096;28;20445;-88
2021/05/22 10:07:04;;;;;;;5.95;1.95;;;11.00;99.90;;;;;;4972250;28;20436;-88
2021/05/22 10:09:30;;;;;;;10.07;3.00;;;11.30;99.90;;;;;;4970358;28;20467;-86
2021/05/22 10:12:05;;;;;;;7.95;3.45;;;11.70;99.90;;;;;;4970042;28;20439;-87
2021/05/22 10:14:34;;;;;;;10.73;2.97;;;11.10;99.90;;;;;;4974822;28;20450;-87
2021/05/22 10:17:02;;;;;;;4.47;2.13;;;11.50;99.90;;;;;;4970388;28;20433;-88
2021/05/22 10:19:29;;;;;;;7.57;2.23;;;10.90;99.90;;;;;;4970678;28;21044;-86
2021/05/22 10:21:57;;;;;;;7.70;2.30;;;10.60;99.90;;;;;;4976059;28;20440;-89
2021/05/22 10:24:24;;;;;;;7.40;2.20;;;11.30;99.90;;;;;;4981768;28;20444;-86
2021/05/22 10:26:51;;;;;;;4.25;1.60;;;11.00;99.90;;;;;;4982332;28;20439;-86
2021/05/22 10:29:19;;;;;;;7.87;2.63;;;11.30;99.90;;;;;;4985005;28;20467;-86
2021/05/22 10:31:47;;;;;;;5.38;2.20;;;10.90;99.90;;;;;;4979233;28;20428;-86
2021/05/22 10:34:15;;;;;;;7.15;3.00;;;10.70;99.90;;;;;;4975208;28;20648;-86
2021/05/22 10:36:47;;;;;;;5.15;2.03;;;11.30;99.90;;;;;;4964419;28;20422;-85
2021/05/22 10:39:32;;;;;;;5.32;2.08;;;10.90;99.90;;;;;;4965870;28;20449;-86
2021/05/22 10:41:59;;;;;;;7.75;2.47;;;11.70;99.90;;;;;;4969378;28;20431;-86
2021/05/22 10:44:29;;;;;;;6.68;2.60;;;11.40;99.90;;;;;;4974555;28;20480;-86
2021/05/22 10:47:21;;;;;;;9.65;3.00;;;11.30;99.90;;;;;;4961007;28;20454;-90
2021/05/22 10:49:53;;;;;;;4.65;1.52;;;11.00;99.90;;;;;;4954824;28;20515;-88
2021/05/22 10:52:22;;;;;;;5.93;2.17;;;11.10;99.90;;;;;;4971428;28;20436;-85
2021/05/22 10:54:59;;;;;;;7.45;2.20;;;10.90;99.90;;;;;;4971092;28;20435;-87
2021/05/22 10:57:26;;;;;;;4.93;2.30;;;12.20;99.90;;;;;;4972582;28;20428;-86
2021/05/22 11:00:19;;;;;;;6.47;2.88;;;11.20;99.90;;;;;;4971909;28;20440;-86
2021/05/22 11:02:48;;;;;;;7.15;2.50;;;10.80;99.90;;;;;;4970803;28;20456;-88
2021/05/22 11:05:43;;;;;;;3.92;1.90;;;11.00;99.90;;;;;;4972177;28;20607;-86
2021/05/22 11:08:29;;;;;;;5.78;2.28;;;11.10;99.90;;;;;;4972623;28;20494;-86
2021/05/22 11:11:00;;;;;;;5.05;1.92;;;11.60;99.90;;;;;;4971929;28;20444;-85
2021/05/22 11:13:41;;;;;;;6.40;2.30;;;11.80;99.90;;;;;;4972000;28;20451;-86
2021/05/22 11:16:08;;;;;;;5.00;2.15;;;11.40;99.90;;;;;;4970685;28;20459;-87
2021/05/22 11:19:05;;;;;;;6.47;2.72;;;11.50;99.90;;;;;;4969840;28;20432;-87
2021/05/22 11:21:32;;;;;;;7.82;2.22;;;11.70;99.90;;;;;;4892491;29;20611;-88
2021/05/22 11:24:04;;;;;;;8.35;2.78;;;11.30;99.90;;;;;;4950608;28;20482;-87
2021/05/22 11:26:52;;;;;;;7.03;2.47;;;11.50;99.90;;;;;;4971173;28;20475;-87
2021/05/22 11:29:19;;;;;;;6.88;2.30;;;11.30;99.90;;;;;;4971178;28;20432;-86
2021/05/22 11:31:46;;;;;;;5.57;2.20;;;11.20;99.90;;;;;;4968699;28;20439;-87
2021/05/22 11:34:28;;;;;;;4.88;2.20;;;14.10;99.90;;;;;;4968718;28;20807;-87
2021/05/22 11:37:32;;;;;;;5.50;2.08;;;12.30;99.90;;;;;;4969212;28;20436;-86
2021/05/22 11:39:58;;;;;;;6.15;2.65;;;11.50;99.90;;;;;;4968476;28;20466;-86
2021/05/22 11:42:29;;;;;;;6.07;2.88;;;11.60;99.90;;;;;;4969117;28;20800;-86
2021/05/22 11:44:57;;;;;;;6.22;2.30;;;12.00;99.90;;;;;;4969428;28;20446;-86
2021/05/22 11:47:29;;;;;;;6.55;2.40;;;12.60;99.90;;;;;;4971311;28;20451;-87
2021/05/22 11:49:56;;;;;;;6.18;2.30;;;11.10;99.90;;;;;;4974135;28;20502;-89
2021/05/22 11:52:30;;;;;;;7.18;3.25;;;11.70;99.90;;;;;;4969275;28;20539;-85
2021/05/22 11:54:57;;;;;;;5.90;1.88;;;11.60;99.90;;;;;;4973047;28;20264;-86
2021/05/22 11:57:24;;;;;;;3.20;2.30;;;11.60;99.90;;;;;;4963905;28;20191;-86
2021/05/22 11:59:51;;;;;;;4.32;1.90;;;11.50;99.90;;;;;;4966514;28;20280;-87
2021/05/22 12:02:36;;;;;;;5.50;2.20;;;11.60;99.90;;;;;;4967699;28;20447;-85
2021/05/22 12:05:07;;;;;;;8.07;2.80;;;11.80;99.90;;;;;;4970495;28;20870;-86
2021/05/22 12:07:46;;;;;;;6.50;2.30;;;11.70;99.90;;;;;;4969392;28;20436;-86
2021/05/22 12:10:14;;;;;;;9.10;3.47;;;11.60;99.90;;;;;;4967255;28;20431;-86
2021/05/22 12:12:40;;;;;;;7.45;2.53;;;11.60;99.90;;;;;;4968996;28;20444;-87
2021/05/22 12:15:08;;;;;;;7.07;2.70;;;11.20;99.90;;;;;;4970242;28;20476;-87
2021/05/22 12:17:43;;;;;;;7.60;2.85;;;11.10;99.90;;;;;;4969150;28;20451;-89
2021/05/22 12:20:12;;;;;;;7.70;3.30;;;11.30;99.90;;;;;;4968469;28;20444;-87
2021/05/22 12:22:38;;;;;;;9.25;3.08;;;11.10;99.90;;;;;;4968454;28;20440;-86
2021/05/22 12:25:06;;;;;;;6.90;2.65;;;11.40;99.90;;;;;;4969333;28;20443;-86
2021/05/22 12:27:32;;;;;;;8.18;2.97;;;11.10;99.90;;;;;;4968156;28;20459;-87
2021/05/22 12:29:59;;;;;;;11.50;3.00;;;11.20;99.90;;;;;;4968097;28;20451;-87
2021/05/22 12:32:26;;;;;;;5.93;2.20;;;12.10;99.90;;;;;;4968296;28;20436;-86
2021/05/22 12:34:57;;;;;;;6.25;2.88;;;11.10;99.90;;;;;;4967615;28;20444;-89
2021/05/22 12:37:24;;;;;;;5.97;2.88;;;11.80;99.90;;;;;;4969534;28;20479;-89
2021/05/22 12:39:57;;;;;;;9.00;3.60;;;11.80;99.90;;;;;;4968589;28;20448;-92
2021/05/22 12:42:26;;;;;;;7.60;2.80;;;11.90;99.90;;;;;;4968898;28;20463;-89
2021/05/22 12:44:54;;;;;;;10.82;3.88;;;11.80;99.90;;;;;;4967320;28;20443;-87
2021/05/22 12:47:23;;;;;;;8.15;3.10;;;12.20;99.90;;;;;;4972298;28;20435;-87
2021/05/22 12:50:05;;;;;;;7.13;2.50;;;12.80;99.90;;;;;;4968036;28;20428;-86
2021/05/22 12:52:52;;;;;;;7.10;3.30;;;12.10;99.90;;;;;;4976418;28;20432;-87
2021/05/22 12:55:22;;;;;;;6.35;3.20;;;12.10;99.90;;;;;;4972996;28;20424;-86
2021/05/22 12:57:49;;;;;;;7.10;2.70;;;12.00;99.90;;;;;;4972640;28;20485;-87
2021/05/22 13:00:16;;;;;;;6.65;2.65;;;13.00;99.90;;;;;;4973654;28;20428;-87
2021/05/22 13:02:53;;;;;;;6.93;2.88;;;12.20;99.90;;;;;;4972450;28;20436;-84